createdAt,value
2019-03-20T00:00:16.291Z,101393.66
2019-03-20T00:05:20.280Z,101391.91
2019-03-20T00:10:24.255Z,101403.32
2019-03-20T00:15:28.234Z,101416.19
2019-03-20T00:20:32.274Z,101405.73
2019-03-20T00:25:36.230Z,101410.02
2019-03-20T00:30:40.194Z,101415.61
2019-03-20T00:35:44.216Z,101414.42
2019-03-20T00:40:48.189Z,101422.31
2019-03-20T00:45:52.119Z,101413.09
2019-03-20T00:50:56.084Z,101414.27
2019-03-20T00:56:00.096Z,101411.35
2019-03-20T01:01:04.022Z,101409.20
2019-03-20T01:06:07.994Z,101410.03
2019-03-20T01:11:11.990Z,101397.05
2019-03-20T01:16:15.940Z,101409.05
2019-03-20T01:21:19.939Z,101398.47
2019-03-20T01:26:23.881Z,101377.20
2019-03-20T01:31:27.931Z,101386.71
2019-03-20T01:36:31.854Z,101382.84
2019-03-20T01:41:38.159Z,101385.17
2019-03-20T01:46:41.391Z,101390.33
2019-03-20T01:51:45.326Z,101386.98
2019-03-20T01:56:50.327Z,101380.93
2019-03-20T02:01:54.304Z,101373.16
2019-03-20T02:06:58.239Z,101372.34
2019-03-20T02:12:02.259Z,101362.96
2019-03-20T02:17:06.244Z,101361.12
2019-03-20T02:22:10.164Z,101349.15
2019-03-20T02:27:14.129Z,101352.30
2019-03-20T02:32:18.247Z,101355.56
2019-03-20T02:37:22.217Z,101354.47
2019-03-20T02:42:26.190Z,101342.73
2019-03-20T02:47:30.127Z,101344.63
2019-03-20T02:52:34.091Z,101334.30
2019-03-20T02:57:38.033Z,101336.37
2019-03-20T03:02:41.986Z,101324.66
2019-03-20T03:07:46.055Z,101322.72
2019-03-20T03:12:49.960Z,101327.36
2019-03-20T03:17:53.915Z,101326.56
2019-03-20T03:22:57.832Z,101326.31
2019-03-20T03:28:01.806Z,101327.05
2019-03-20T03:33:05.765Z,101333.23
2019-03-20T03:38:09.780Z,101335.70
2019-03-20T03:43:13.681Z,101331.38
2019-03-20T03:48:17.629Z,101334.60
2019-03-20T03:53:21.544Z,101331.63
2019-03-20T03:58:25.555Z,101331.38
2019-03-20T04:03:29.602Z,101341.58
2019-03-20T04:08:33.565Z,101338.41
2019-03-20T04:13:37.541Z,101348.14
2019-03-20T04:18:41.487Z,101344.08
2019-03-20T04:23:45.426Z,101353.06
2019-03-20T04:28:49.385Z,101350.36
2019-03-20T04:33:53.353Z,101358.48
2019-03-20T04:38:57.284Z,101363.16
2019-03-20T04:44:01.187Z,101360.13
2019-03-20T04:49:05.115Z,101371.97
2019-03-20T04:54:09.010Z,101372.09
2019-03-20T04:59:13.000Z,101376.69
2019-03-20T05:04:16.990Z,101384.59
2019-03-20T05:09:20.862Z,101384.72
2019-03-20T05:14:24.889Z,101388.58
2019-03-20T05:19:28.870Z,101384.98
2019-03-20T05:24:32.836Z,101389.80
2019-03-20T05:29:36.782Z,101402.09
2019-03-20T05:34:40.694Z,101400.20
2019-03-20T05:39:44.599Z,101399.39
2019-03-20T05:44:48.566Z,101407.92
2019-03-20T05:49:52.490Z,101404.97
2019-03-20T05:54:56.460Z,101413.48
2019-03-20T06:00:00.537Z,101422.95
2019-03-20T06:05:04.858Z,101428.12
2019-03-20T06:10:10.465Z,101421.66
2019-03-20T06:15:14.672Z,101415.29
2019-03-20T06:20:18.590Z,101417.45
2019-03-20T06:25:22.507Z,101429.05
2019-03-20T06:30:26.410Z,101443.72
2019-03-20T06:35:30.391Z,101447.96
2019-03-20T06:40:34.264Z,101454.25
2019-03-20T06:45:38.265Z,101452.42
2019-03-20T06:50:42.211Z,101455.55
2019-03-20T06:55:46.140Z,101458.77
2019-03-20T07:00:56.706Z,101469.28
2019-03-20T07:06:22.329Z,101474.79
2019-03-20T07:11:24.463Z,101471.53
2019-03-20T07:16:28.384Z,101480.29
2019-03-20T07:21:33.361Z,101480.19
2019-03-20T07:26:37.301Z,101490.04
2019-03-20T07:31:41.305Z,101495.83
2019-03-20T07:36:45.335Z,101498.03
2019-03-20T07:41:49.307Z,101502.87
2019-03-20T07:46:53.203Z,101507.94
2019-03-20T07:51:57.286Z,101524.92
2019-03-20T07:57:01.250Z,101528.02
2019-03-20T08:02:06.066Z,101526.33
2019-03-20T08:07:11.980Z,101526.95
2019-03-20T08:12:15.969Z,101550.58
2019-03-20T08:17:22.656Z,101545.61
2019-03-20T08:22:26.649Z,101555.55
2019-03-20T08:27:30.590Z,101557.97
2019-03-20T08:32:37.749Z,101558.61
2019-03-20T08:37:41.784Z,101555.05
2019-03-20T08:42:45.734Z,101553.64
2019-03-20T08:47:49.754Z,101555.28
2019-03-20T08:52:53.655Z,101561.56
2019-03-20T08:57:57.657Z,101574.55
2019-03-20T09:03:02.580Z,101580.84
2019-03-20T09:08:06.594Z,101589.67
2019-03-20T09:13:10.595Z,101597.55
2019-03-20T09:18:14.595Z,101602.02
2019-03-20T09:23:18.534Z,101600.62
2019-03-20T09:28:22.450Z,101605.81
2019-03-20T09:33:26.407Z,101601.91
2019-03-20T09:38:30.409Z,101604.11
2019-03-20T09:43:34.400Z,101608.95
2019-03-20T09:48:38.402Z,101609.20
2019-03-20T09:53:42.438Z,101606.00
2019-03-20T09:58:46.512Z,101614.00
2019-03-20T10:03:50.611Z,101612.00
2019-03-20T10:08:54.717Z,101611.62
2019-03-20T10:13:58.690Z,101623.97
2019-03-20T10:19:02.710Z,101621.58
2019-03-20T10:24:06.725Z,101633.17
2019-03-20T10:29:10.761Z,101633.08
2019-03-20T10:34:14.809Z,101646.44
2019-03-20T10:39:18.753Z,101645.38
2019-03-20T10:44:22.721Z,101641.52
2019-03-20T10:49:26.780Z,101651.41
2019-03-20T10:54:30.811Z,101645.06
2019-03-20T10:59:34.775Z,101643.41
2019-03-20T11:04:38.845Z,101637.48
2019-03-20T11:09:42.919Z,101637.80
2019-03-20T11:14:49.823Z,101637.23
2019-03-20T11:19:56.210Z,101631.20
2019-03-20T11:24:59.420Z,101630.83
2019-03-20T11:30:04.451Z,101631.10
2019-03-20T11:35:08.400Z,101629.07
2019-03-20T11:40:16.226Z,101630.19
2019-03-20T11:45:20.225Z,101626.78
2019-03-20T11:50:26.856Z,101626.77
2019-03-20T11:55:30.896Z,101625.69
2019-03-20T12:00:34.996Z,101621.14
2019-03-20T12:05:39.054Z,101602.95
2019-03-20T12:10:45.057Z,101627.22
2019-03-20T12:15:49.061Z,101624.67
2019-03-20T12:20:53.130Z,101615.08
2019-03-20T12:25:57.237Z,101615.08
2019-03-20T12:31:01.206Z,101620.72
2019-03-20T12:36:05.417Z,101614.03
2019-03-20T12:41:09.637Z,101614.03
2019-03-20T12:46:13.952Z,101611.72
2019-03-20T12:51:17.981Z,101615.91
2019-03-20T12:56:23.593Z,101629.19
2019-03-20T13:01:27.715Z,101602.30
2019-03-20T13:06:33.159Z,101599.85
2019-03-20T13:11:37.156Z,101596.61
2019-03-20T13:16:41.229Z,101616.02
2019-03-20T13:21:48.475Z,101610.97
2019-03-20T13:26:52.496Z,101599.44
2019-03-20T13:31:56.475Z,101603.48
2019-03-20T13:37:00.669Z,101606.80
2019-03-20T13:42:04.875Z,101604.97
2019-03-20T13:47:08.895Z,101601.45
2019-03-20T13:52:12.981Z,101603.91
2019-03-20T13:57:16.974Z,101607.39
2019-03-20T14:02:20.968Z,101595.55
2019-03-20T14:07:25.014Z,101599.89
2019-03-20T14:12:28.978Z,101591.38
2019-03-20T14:17:32.923Z,101593.19
2019-03-20T14:22:36.914Z,101589.86
2019-03-20T14:27:40.927Z,101593.99
2019-03-20T14:32:45.038Z,101586.94
2019-03-20T14:37:49.083Z,101587.23
2019-03-20T14:42:53.138Z,101582.63
2019-03-20T14:47:57.100Z,101583.38
2019-03-20T14:53:01.170Z,101583.05
2019-03-20T14:58:05.242Z,101566.40
2019-03-20T15:03:10.606Z,101574.94
2019-03-20T15:08:14.679Z,101569.36
2019-03-20T15:13:18.862Z,101574.91
2019-03-20T15:18:24.227Z,101569.13
2019-03-20T15:23:28.118Z,101567.91
2019-03-20T15:28:34.563Z,101567.04
2019-03-20T15:33:38.546Z,101566.08
2019-03-20T15:38:42.510Z,101566.34
2019-03-20T15:43:46.485Z,101561.08
2019-03-20T15:48:50.481Z,101562.91
2019-03-20T15:53:54.513Z,101567.59
2019-03-20T15:58:58.563Z,101567.70
2019-03-20T16:04:03.413Z,101567.43
2019-03-20T16:09:08.711Z,101568.61
2019-03-20T16:14:12.693Z,101569.17
2019-03-20T16:19:16.885Z,101558.17
2019-03-20T16:24:20.908Z,101564.29
2019-03-20T16:29:24.848Z,101560.06
2019-03-20T16:34:28.938Z,101557.30
2019-03-20T16:39:32.993Z,101567.80
2019-03-20T16:44:36.937Z,101569.33
2019-03-20T16:49:40.907Z,101564.11
2019-03-20T16:54:44.857Z,101572.16
2019-03-20T16:59:50.047Z,101579.04
2019-03-20T17:04:54.089Z,101579.63
2019-03-20T17:10:00.674Z,101589.06
2019-03-20T17:15:07.667Z,101585.93
2019-03-20T17:20:12.918Z,101587.13
2019-03-20T17:25:16.917Z,101585.93
2019-03-20T17:30:24.238Z,101588.97
2019-03-20T17:35:28.347Z,101594.39
2019-03-20T17:40:32.313Z,101597.44
2019-03-20T17:45:36.589Z,101607.88
2019-03-20T17:50:42.840Z,101609.09
2019-03-20T17:55:47.733Z,101606.80
2019-03-20T18:00:51.734Z,101606.02
2019-03-20T18:05:55.708Z,101605.86
2019-03-20T18:10:59.930Z,101615.11
2019-03-20T18:16:04.354Z,101616.84
2019-03-20T18:21:08.646Z,101623.70
2019-03-20T18:26:12.754Z,101623.70
2019-03-20T18:31:16.799Z,101630.84
2019-03-20T18:36:21.094Z,101634.95
2019-03-20T18:41:25.166Z,101638.28
2019-03-20T18:46:29.518Z,101641.25
2019-03-20T18:51:35.719Z,101645.44
2019-03-20T18:56:39.791Z,101646.23
2019-03-20T19:01:43.939Z,101646.66
2019-03-20T19:06:48.006Z,101655.86
2019-03-20T19:11:52.158Z,101651.92
2019-03-20T19:16:56.173Z,101651.55
2019-03-20T19:22:00.213Z,101650.74
2019-03-20T19:27:04.580Z,101643.73
2019-03-20T19:32:08.706Z,101652.83
2019-03-20T19:37:12.813Z,101651.75
2019-03-20T19:42:20.189Z,101648.07
2019-03-20T19:47:22.663Z,101655.23
2019-03-20T19:52:26.622Z,101650.93
2019-03-20T19:57:30.861Z,101657.37
2019-03-20T20:02:34.895Z,101650.05
2019-03-20T20:07:38.966Z,101654.83
2019-03-20T20:12:43.040Z,101663.71
2019-03-20T20:17:47.259Z,101668.56
2019-03-20T20:22:51.303Z,101670.10
2019-03-20T20:27:55.279Z,101665.25
2019-03-20T20:32:59.524Z,101675.35
2019-03-20T20:38:03.564Z,101676.84
2019-03-20T20:43:09.620Z,101671.83
2019-03-20T20:48:13.660Z,101675.65
2019-03-20T20:53:17.680Z,101674.91
2019-03-20T20:58:21.854Z,101678.66
2019-03-20T21:03:25.880Z,101684.28
2019-03-20T21:08:29.926Z,101679.09
2019-03-20T21:13:34.079Z,101683.59
2019-03-20T21:19:10.000Z,101683.88
2019-03-20T21:24:22.181Z,101687.42
2019-03-20T21:29:48.580Z,101682.80
2019-03-20T21:35:09.979Z,101687.39
2019-03-20T21:40:16.238Z,101686.36
2019-03-20T21:45:37.621Z,101691.10
2019-03-20T21:51:07.340Z,101690.52
2019-03-20T21:56:27.564Z,101689.42
2019-03-20T22:01:46.187Z,101696.88
2019-03-20T22:07:04.957Z,101688.72
2019-03-20T22:12:19.870Z,101693.06
2019-03-20T22:17:51.221Z,101693.43
2019-03-20T22:23:09.566Z,101694.27
2019-03-20T22:28:41.051Z,101682.47
2019-03-20T22:34:03.003Z,101692.53
2019-03-20T22:39:35.055Z,101696.06
2019-03-20T22:44:50.967Z,101696.51
2019-03-20T22:50:14.641Z,101695.98
2019-03-20T22:55:31.481Z,101699.14
2019-03-20T23:00:36.146Z,101701.73
2019-03-20T23:05:40.740Z,101702.99
2019-03-20T23:10:47.290Z,101704.95
2019-03-20T23:15:52.321Z,101710.33
2019-03-20T23:20:56.756Z,101710.83
2019-03-20T23:26:01.254Z,101702.05
2019-03-20T23:31:05.821Z,101701.25
2019-03-20T23:36:10.627Z,101702.62
2019-03-20T23:41:15.165Z,101704.13
2019-03-20T23:46:19.680Z,101698.89
2019-03-20T23:51:24.728Z,101701.55
2019-03-20T23:56:31.147Z,101702.48
